createdAt,value
2023-01-25T00:00:14.159Z,0.79
2023-01-25T00:02:42.872Z,0.82
2023-01-25T00:05:11.875Z,0.90
2023-01-25T00:07:41.938Z,0.88
2023-01-25T00:10:12.420Z,0.79
2023-01-25T00:12:41.405Z,0.85
2023-01-25T00:15:11.323Z,0.86
2023-01-25T00:17:39.921Z,0.85
2023-01-25T00:20:11.753Z,0.85
2023-01-25T00:22:42.501Z,0.95
2023-01-25T00:25:11.849Z,0.96
2023-01-25T00:27:41.760Z,0.91
2023-01-25T00:30:12.239Z,0.96
2023-01-25T00:32:55.159Z,0.87
2023-01-25T00:35:32.824Z,0.95
2023-01-25T00:38:07.509Z,0.94
2023-01-25T00:40:36.140Z,1.00
2023-01-25T00:43:04.786Z,0.98
2023-01-25T00:45:33.695Z,0.92
2023-01-25T00:48:02.348Z,1.04
2023-01-25T00:50:31.806Z,0.98
2023-01-25T00:53:00.458Z,1.00
2023-01-25T00:55:30.630Z,0.92
2023-01-25T00:57:59.294Z,0.90
2023-01-25T01:00:27.979Z,1.07
2023-01-25T01:02:57.180Z,1.03
2023-01-25T01:05:27.568Z,1.00
2023-01-25T01:07:58.016Z,0.95
2023-01-25T01:10:26.746Z,0.90
2023-01-25T01:12:56.840Z,0.99
2023-01-25T01:15:25.412Z,0.96
2023-01-25T01:17:54.071Z,0.89
2023-01-25T01:20:22.780Z,0.87
2023-01-25T01:22:55.539Z,0.99
2023-01-25T01:25:24.214Z,1.02
2023-01-25T01:27:52.899Z,1.01
2023-01-25T01:30:23.740Z,0.95
2023-01-25T01:32:53.183Z,0.96
2023-01-25T01:35:21.993Z,1.07
2023-01-25T01:37:50.627Z,0.96
2023-01-25T01:40:19.666Z,1.04
2023-01-25T01:42:59.776Z,1.02
2023-01-25T01:45:55.547Z,1.01
2023-01-25T01:48:39.337Z,1.01
2023-01-25T01:51:20.586Z,1.04
2023-01-25T01:53:56.132Z,0.99
2023-01-25T01:56:32.629Z,0.96
2023-01-25T01:59:08.039Z,0.95
2023-01-25T02:01:39.012Z,0.90
2023-01-25T02:04:10.582Z,1.05
2023-01-25T02:06:48.132Z,1.06
2023-01-25T02:09:22.585Z,0.99
2023-01-25T02:11:54.858Z,0.95
2023-01-25T02:14:25.063Z,1.07
2023-01-25T02:16:55.478Z,1.00
2023-01-25T02:19:42.729Z,1.00
2023-01-25T02:22:17.246Z,0.90
2023-01-25T02:24:58.639Z,0.97
2023-01-25T02:27:27.467Z,1.10
2023-01-25T02:29:56.285Z,1.07
2023-01-25T02:32:24.892Z,1.01
2023-01-25T02:34:54.921Z,0.98
2023-01-25T02:37:23.719Z,0.92
2023-01-25T02:39:54.085Z,0.89
2023-01-25T02:42:26.759Z,0.99
2023-01-25T02:44:55.598Z,1.02
2023-01-25T02:47:25.777Z,0.96
2023-01-25T02:49:54.498Z,0.99
2023-01-25T02:52:23.162Z,0.92
2023-01-25T02:54:52.027Z,0.92
2023-01-25T02:57:23.105Z,0.86
2023-01-25T02:59:53.358Z,0.99
2023-01-25T03:02:22.577Z,0.99
2023-01-25T03:04:52.395Z,0.96
2023-01-25T03:07:21.134Z,1.02
2023-01-25T03:09:49.751Z,0.87
2023-01-25T03:12:18.385Z,0.88
2023-01-25T03:14:47.962Z,0.90
2023-01-25T03:17:18.028Z,0.95
2023-01-25T03:19:47.420Z,0.92
2023-01-25T03:22:16.125Z,0.87
2023-01-25T03:24:45.337Z,0.97
2023-01-25T03:27:17.180Z,0.87
2023-01-25T03:30:10.746Z,0.83
2023-01-25T03:32:40.876Z,0.86
2023-01-25T03:35:12.945Z,0.81
2023-01-25T03:37:42.966Z,0.85
2023-01-25T03:40:13.391Z,0.87
2023-01-25T03:42:46.296Z,0.87
2023-01-25T03:45:15.441Z,0.87
2023-01-25T03:47:45.652Z,0.80
2023-01-25T03:50:14.365Z,0.91
2023-01-25T03:53:02.670Z,0.91
2023-01-25T03:55:33.627Z,0.97
2023-01-25T03:58:02.539Z,0.90
2023-01-25T04:00:31.284Z,0.85
2023-01-25T04:03:04.115Z,0.90
2023-01-25T04:05:32.824Z,0.90
2023-01-25T04:08:02.140Z,0.94
2023-01-25T04:10:37.319Z,0.78
2023-01-25T04:13:06.974Z,0.85
2023-01-25T04:15:36.610Z,0.92
2023-01-25T04:18:14.315Z,0.85
2023-01-25T04:20:43.388Z,0.88
2023-01-25T04:23:13.070Z,0.92
2023-01-25T04:25:43.216Z,0.89
2023-01-25T04:28:17.010Z,0.78
2023-01-25T04:30:46.211Z,0.74
2023-01-25T04:33:17.025Z,0.83
2023-01-25T04:35:47.090Z,0.81
2023-01-25T04:38:18.108Z,0.73
2023-01-25T04:40:47.688Z,0.79
2023-01-25T04:43:20.205Z,0.93
2023-01-25T04:45:50.939Z,0.81
2023-01-25T04:48:28.991Z,0.88
2023-01-25T04:51:01.761Z,0.82
2023-01-25T04:53:30.411Z,0.91
2023-01-25T04:56:02.467Z,0.89
2023-01-25T04:58:35.917Z,0.90
2023-01-25T05:01:05.970Z,0.97
2023-01-25T05:03:36.150Z,0.92
2023-01-25T05:06:07.274Z,1.01
2023-01-25T05:08:36.134Z,1.03
2023-01-25T05:11:05.381Z,0.90
2023-01-25T05:13:46.924Z,1.04
2023-01-25T05:16:21.362Z,1.08
2023-01-25T05:18:51.444Z,0.84
2023-01-25T05:21:42.514Z,1.06
2023-01-25T05:24:13.686Z,1.06
2023-01-25T05:27:02.003Z,0.97
2023-01-25T05:29:43.190Z,0.99
2023-01-25T05:32:15.421Z,1.06
2023-01-25T05:34:46.355Z,1.00
2023-01-25T05:37:18.609Z,1.08
2023-01-25T05:39:49.474Z,0.95
2023-01-25T05:42:20.272Z,0.97
2023-01-25T05:44:49.477Z,1.07
2023-01-25T05:47:19.736Z,1.04
2023-01-25T05:49:55.475Z,1.16
2023-01-25T05:52:40.190Z,1.09
2023-01-25T05:55:10.445Z,1.22
2023-01-25T05:57:39.986Z,1.09
2023-01-25T06:00:10.698Z,1.05
2023-01-25T06:02:45.227Z,1.07
2023-01-25T06:05:19.991Z,1.16
2023-01-25T06:07:48.718Z,1.11
2023-01-25T06:10:18.975Z,1.08
2023-01-25T06:12:51.032Z,1.16
2023-01-25T06:15:19.903Z,1.20
2023-01-25T06:17:48.723Z,1.11
2023-01-25T06:20:30.270Z,1.05
2023-01-25T06:23:07.667Z,1.21
2023-01-25T06:25:36.323Z,1.05
2023-01-25T06:28:05.142Z,1.11
2023-01-25T06:30:33.989Z,1.19
2023-01-25T06:33:03.647Z,1.02
2023-01-25T06:35:35.432Z,1.09
2023-01-25T06:38:04.072Z,0.94
2023-01-25T06:40:34.440Z,1.01
2023-01-25T06:43:08.697Z,1.07
2023-01-25T06:45:37.473Z,1.15
2023-01-25T06:48:06.357Z,1.16
2023-01-25T06:50:36.354Z,1.13
2023-01-25T06:53:04.981Z,1.14
2023-01-25T06:55:33.617Z,1.17
2023-01-25T06:58:02.626Z,1.23
2023-01-25T07:00:31.386Z,1.16
2023-01-25T07:03:00.129Z,1.20
2023-01-25T07:05:28.752Z,1.17
2023-01-25T07:08:00.548Z,1.27
2023-01-25T07:10:29.238Z,1.23
2023-01-25T07:12:57.872Z,1.30
2023-01-25T07:15:26.547Z,1.33
2023-01-25T07:17:57.929Z,1.32
2023-01-25T07:20:29.839Z,1.42
2023-01-25T07:23:02.277Z,1.30
2023-01-25T07:25:30.955Z,1.42
2023-01-25T07:27:59.580Z,1.48
2023-01-25T07:30:28.262Z,1.52
2023-01-25T07:32:56.861Z,1.48
2023-01-25T07:35:25.590Z,1.52
2023-01-25T07:37:54.373Z,1.51
2023-01-25T07:40:25.488Z,1.60
2023-01-25T07:42:54.625Z,1.59
2023-01-25T07:45:30.177Z,1.51
2023-01-25T07:48:00.511Z,1.46
2023-01-25T07:50:30.521Z,1.53
2023-01-25T07:53:01.285Z,1.62
2023-01-25T07:55:32.313Z,1.56
2023-01-25T07:58:01.831Z,1.61
2023-01-25T08:00:30.573Z,1.49
2023-01-25T08:02:59.460Z,1.46
2023-01-25T08:05:28.183Z,1.48
2023-01-25T08:07:56.775Z,1.58
2023-01-25T08:10:25.614Z,1.43
2023-01-25T08:12:56.131Z,1.41
2023-01-25T08:15:27.131Z,1.46
2023-01-25T08:17:56.541Z,1.62
2023-01-25T08:20:25.264Z,1.65
2023-01-25T08:22:54.208Z,1.60
2023-01-25T08:25:22.918Z,1.63
2023-01-25T08:27:53.187Z,1.55
2023-01-25T08:30:23.419Z,1.48
2023-01-25T08:32:52.124Z,1.60
2023-01-25T08:35:20.757Z,1.57
2023-01-25T08:37:49.364Z,1.47
2023-01-25T08:40:18.700Z,1.62
2023-01-25T08:42:47.368Z,1.59
2023-01-25T08:45:16.168Z,1.63
2023-01-25T08:47:46.210Z,1.69
2023-01-25T08:50:14.881Z,1.65
2023-01-25T08:52:43.524Z,1.59
2023-01-25T08:55:12.192Z,1.73
2023-01-25T08:57:42.189Z,1.69
2023-01-25T09:00:12.771Z,1.77
2023-01-25T09:02:41.849Z,1.74
2023-01-25T09:05:12.174Z,1.72
2023-01-25T09:07:40.871Z,1.71
2023-01-25T09:10:11.565Z,1.76
2023-01-25T09:12:41.686Z,1.78
2023-01-25T09:15:11.332Z,1.76
2023-01-25T09:17:40.236Z,1.74
2023-01-25T09:20:12.554Z,1.88
2023-01-25T09:22:41.184Z,1.86
2023-01-25T09:25:10.599Z,1.83
2023-01-25T09:27:39.483Z,1.84
2023-01-25T09:30:18.258Z,1.96
2023-01-25T09:32:51.636Z,1.89
2023-01-25T09:35:22.234Z,1.95
2023-01-25T09:37:53.448Z,2.02
2023-01-25T09:40:28.422Z,2.04
2023-01-25T09:43:05.341Z,2.04
2023-01-25T09:45:36.477Z,1.95
2023-01-25T09:48:22.021Z,1.99
2023-01-25T09:51:20.725Z,2.14
2023-01-25T09:53:52.646Z,2.07
2023-01-25T09:56:27.379Z,1.99
2023-01-25T09:59:01.248Z,2.18
2023-01-25T10:01:40.951Z,2.22
2023-01-25T10:04:19.027Z,2.18
2023-01-25T10:07:00.655Z,2.16
2023-01-25T10:09:42.694Z,2.18
2023-01-25T10:12:21.521Z,2.14
2023-01-25T10:14:50.724Z,2.19
2023-01-25T10:17:33.313Z,2.28
2023-01-25T10:20:20.380Z,2.22
2023-01-25T10:22:58.745Z,2.28
2023-01-25T10:25:37.490Z,2.29
2023-01-25T10:28:24.622Z,2.34
2023-01-25T10:31:02.303Z,2.33
2023-01-25T10:33:37.009Z,2.25
2023-01-25T10:36:08.068Z,2.24
2023-01-25T10:38:42.823Z,2.28
2023-01-25T10:41:19.899Z,2.37
2023-01-25T10:44:08.683Z,2.20
2023-01-25T10:46:39.521Z,2.33
2023-01-25T10:49:24.427Z,2.21
2023-01-25T10:51:53.162Z,2.28
2023-01-25T10:54:25.442Z,2.26
2023-01-25T10:56:54.613Z,2.30
2023-01-25T10:59:26.810Z,2.18
2023-01-25T11:01:56.141Z,2.22
2023-01-25T11:04:38.348Z,2.27
2023-01-25T11:07:07.382Z,2.28
2023-01-25T11:09:40.475Z,2.29
2023-01-25T11:12:21.480Z,2.32
2023-01-25T11:14:52.032Z,2.38
2023-01-25T11:17:32.643Z,2.34
2023-01-25T11:20:19.248Z,2.27
2023-01-25T11:22:57.701Z,2.32
2023-01-25T11:25:32.195Z,2.40
2023-01-25T11:28:19.829Z,2.29
2023-01-25T11:30:50.454Z,2.30
2023-01-25T11:33:22.604Z,2.29
2023-01-25T11:36:12.192Z,2.39
2023-01-25T11:38:55.662Z,2.26
2023-01-25T11:41:35.237Z,2.42
2023-01-25T11:44:42.467Z,2.34
2023-01-25T11:47:28.587Z,2.39
2023-01-25T11:50:12.736Z,2.33
2023-01-25T11:53:11.583Z,2.32
2023-01-25T11:55:50.995Z,2.39
2023-01-25T11:58:41.036Z,2.39
2023-01-25T12:01:22.411Z,2.32
2023-01-25T12:04:51.038Z,2.37
2023-01-25T12:07:33.046Z,2.39
2023-01-25T12:10:19.293Z,2.43
2023-01-25T12:13:01.095Z,2.50
2023-01-25T12:16:10.413Z,2.49
2023-01-25T12:19:19.304Z,2.46
2023-01-25T12:22:13.931Z,2.41
2023-01-25T12:24:57.044Z,2.46
2023-01-25T12:27:42.412Z,2.37
2023-01-25T12:30:22.625Z,2.42
2023-01-25T12:33:09.034Z,2.33
2023-01-25T12:35:47.633Z,2.41
2023-01-25T12:38:25.593Z,2.37
2023-01-25T12:41:00.733Z,2.40
2023-01-25T12:43:38.369Z,2.48
2023-01-25T12:46:17.330Z,2.36
2023-01-25T12:48:53.823Z,2.37
2023-01-25T12:51:25.782Z,2.39
2023-01-25T12:53:56.328Z,2.35
2023-01-25T12:56:40.815Z,2.39
2023-01-25T12:59:21.761Z,2.39
2023-01-25T13:01:58.212Z,2.32
2023-01-25T13:04:56.913Z,2.46
2023-01-25T13:07:36.235Z,2.30
2023-01-25T13:10:16.044Z,2.39
2023-01-25T13:12:56.053Z,2.42
2023-01-25T13:15:44.432Z,2.35
2023-01-25T13:18:38.274Z,2.46
2023-01-25T13:21:32.585Z,2.44
2023-01-25T13:24:21.039Z,2.46
2023-01-25T13:27:00.805Z,2.47
2023-01-25T13:30:00.959Z,2.50
2023-01-25T13:33:07.297Z,2.46
2023-01-25T13:35:48.545Z,2.57
2023-01-25T13:38:36.904Z,2.50
2023-01-25T13:44:28.563Z,2.55
2023-01-25T13:46:59.074Z,2.49
2023-01-25T13:53:07.266Z,2.51
2023-01-25T13:55:47.683Z,2.45
2023-01-25T13:58:21.032Z,2.48
2023-01-25T14:00:56.683Z,2.55
2023-01-25T14:03:30.187Z,2.59
2023-01-25T14:06:02.625Z,2.55
2023-01-25T14:08:33.111Z,2.50
2023-01-25T14:11:03.508Z,2.61
2023-01-25T14:13:32.218Z,2.50
2023-01-25T14:16:04.507Z,2.62
2023-01-25T14:18:35.485Z,2.56
2023-01-25T14:21:17.819Z,2.55
2023-01-25T14:23:47.268Z,2.51
2023-01-25T14:26:25.089Z,2.56
2023-01-25T14:29:01.704Z,2.47
2023-01-25T14:31:36.631Z,2.56
2023-01-25T14:34:06.254Z,2.58
2023-01-25T14:36:36.036Z,2.59
2023-01-25T14:39:24.618Z,2.67
2023-01-25T14:42:01.536Z,2.56
2023-01-25T14:44:31.757Z,2.56
2023-01-25T14:47:30.863Z,2.64
2023-01-25T14:50:33.687Z,2.58
2023-01-25T14:53:10.822Z,2.65
2023-01-25T14:55:39.602Z,2.65
2023-01-25T14:58:18.148Z,2.62
2023-01-25T15:00:54.032Z,2.67
2023-01-25T15:03:23.344Z,2.56
2023-01-25T15:05:52.380Z,2.74
2023-01-25T15:08:31.473Z,2.65
2023-01-25T15:11:21.449Z,2.67
2023-01-25T15:14:02.912Z,2.62
2023-01-25T15:16:35.342Z,2.56
2023-01-25T15:19:04.040Z,2.65
2023-01-25T15:21:34.301Z,2.60
2023-01-25T15:24:07.420Z,2.74
2023-01-25T15:26:37.677Z,2.73
2023-01-25T15:29:15.229Z,2.69
2023-01-25T15:31:44.929Z,2.65
2023-01-25T15:34:18.707Z,2.69
2023-01-25T15:36:48.295Z,2.71
2023-01-25T15:39:19.449Z,2.59
2023-01-25T15:41:49.466Z,2.66
2023-01-25T15:44:20.535Z,2.78
2023-01-25T15:46:53.667Z,2.76
2023-01-25T15:49:27.723Z,2.82
2023-01-25T15:52:00.152Z,2.71
2023-01-25T15:54:28.785Z,2.74
2023-01-25T15:57:01.125Z,2.74
2023-01-25T15:59:32.877Z,2.83
2023-01-25T16:02:01.935Z,2.81
2023-01-25T16:04:30.620Z,2.88
2023-01-25T16:07:01.084Z,2.78
2023-01-25T16:09:33.363Z,2.83
2023-01-25T16:12:03.771Z,2.88
2023-01-25T16:14:35.921Z,2.85
2023-01-25T16:17:06.330Z,2.96
2023-01-25T16:19:37.363Z,2.79
2023-01-25T16:22:05.962Z,2.83
2023-01-25T16:24:34.631Z,2.85
2023-01-25T16:27:03.428Z,2.97
2023-01-25T16:29:33.581Z,2.97
2023-01-25T16:32:02.357Z,3.02
2023-01-25T16:34:31.081Z,2.95
2023-01-25T16:36:59.968Z,2.83
2023-01-25T16:39:30.180Z,2.90
2023-01-25T16:42:03.177Z,2.85
2023-01-25T16:44:33.308Z,2.91
2023-01-25T16:47:02.038Z,2.85
2023-01-25T16:49:31.108Z,2.92
2023-01-25T16:52:00.943Z,2.94
2023-01-25T16:54:30.091Z,2.98
2023-01-25T16:56:59.951Z,3.00
2023-01-25T16:59:30.673Z,2.95
2023-01-25T17:02:00.764Z,2.95
2023-01-25T17:04:30.389Z,2.96
2023-01-25T17:07:00.104Z,3.04
2023-01-25T17:09:29.744Z,3.11
2023-01-25T17:11:58.989Z,3.04
2023-01-25T17:14:27.948Z,2.99
2023-01-25T17:16:56.533Z,3.00
2023-01-25T17:19:30.682Z,3.00
2023-01-25T17:22:00.771Z,2.98
2023-01-25T17:24:30.636Z,2.98
2023-01-25T17:27:01.477Z,3.01
2023-01-25T17:29:31.101Z,3.04
2023-01-25T17:32:00.185Z,2.95
2023-01-25T17:34:31.377Z,2.95
2023-01-25T17:37:00.005Z,2.98
2023-01-25T17:39:28.633Z,2.99
2023-01-25T17:41:57.427Z,2.97
2023-01-25T17:44:26.198Z,3.00
2023-01-25T17:46:55.080Z,2.90
2023-01-25T17:49:25.036Z,2.92
2023-01-25T17:51:55.917Z,2.88
2023-01-25T17:54:24.627Z,2.83
2023-01-25T17:56:54.179Z,2.89
2023-01-25T17:59:23.026Z,2.96
2023-01-25T18:01:51.735Z,2.86
2023-01-25T18:04:20.630Z,2.78
2023-01-25T18:06:49.336Z,2.89
2023-01-25T18:09:19.697Z,2.79
2023-01-25T18:11:48.892Z,2.76
2023-01-25T18:14:18.728Z,2.85
2023-01-25T18:16:47.474Z,2.77
2023-01-25T18:19:16.224Z,2.76
2023-01-25T18:21:45.030Z,2.73
2023-01-25T18:24:34.347Z,2.72
2023-01-25T18:27:08.321Z,2.79
2023-01-25T18:29:47.715Z,2.77
2023-01-25T18:32:17.062Z,2.78
2023-01-25T18:34:46.904Z,2.76
2023-01-25T18:37:23.450Z,2.79
2023-01-25T18:39:55.687Z,2.65
2023-01-25T18:42:30.596Z,2.82
2023-01-25T18:44:59.685Z,2.81
2023-01-25T18:47:29.043Z,2.76
2023-01-25T18:50:00.939Z,2.70
2023-01-25T18:52:30.044Z,2.86
2023-01-25T18:55:00.861Z,2.77
2023-01-25T18:57:33.333Z,2.80
2023-01-25T19:00:02.296Z,2.82
2023-01-25T19:02:32.851Z,2.85
2023-01-25T19:05:02.633Z,2.81
2023-01-25T19:07:40.122Z,2.89
2023-01-25T19:10:14.338Z,2.81
2023-01-25T19:12:42.926Z,2.87
2023-01-25T19:15:12.823Z,2.90
2023-01-25T19:17:41.631Z,2.85
2023-01-25T19:20:12.225Z,2.94
2023-01-25T19:22:41.327Z,2.88
2023-01-25T19:25:12.145Z,3.01
2023-01-25T19:27:41.787Z,2.93
2023-01-25T19:30:12.142Z,2.96
2023-01-25T19:32:40.860Z,2.93
2023-01-25T19:35:10.533Z,2.93
2023-01-25T19:37:39.379Z,3.00
2023-01-25T19:40:11.430Z,2.89
2023-01-25T19:42:40.126Z,3.00
2023-01-25T19:45:10.421Z,2.89
2023-01-25T19:47:39.301Z,2.98
2023-01-25T19:50:09.997Z,3.09
2023-01-25T19:52:38.679Z,3.00
2023-01-25T19:55:10.654Z,3.05
2023-01-25T19:57:39.501Z,2.91
2023-01-25T20:00:10.104Z,2.97
2023-01-25T20:02:38.766Z,2.96
2023-01-25T20:05:08.933Z,3.05
2023-01-25T20:07:37.803Z,3.09
2023-01-25T20:10:07.957Z,3.08
2023-01-25T20:12:38.049Z,2.95
2023-01-25T20:15:08.719Z,2.97
2023-01-25T20:17:37.719Z,3.07
2023-01-25T20:20:08.662Z,3.07
2023-01-25T20:22:37.444Z,3.02
2023-01-25T20:25:08.446Z,3.09
2023-01-25T20:27:41.466Z,3.04
2023-01-25T20:30:11.954Z,3.06
2023-01-25T20:32:40.714Z,3.08
2023-01-25T20:35:10.793Z,3.03
2023-01-25T20:37:39.896Z,3.05
2023-01-25T20:40:10.536Z,3.05
2023-01-25T20:42:40.633Z,3.04
2023-01-25T20:45:17.048Z,3.16
2023-01-25T20:47:46.344Z,3.17
2023-01-25T20:50:15.430Z,3.08
2023-01-25T20:52:44.312Z,3.04
2023-01-25T20:55:13.202Z,3.02
2023-01-25T20:57:43.398Z,3.04
2023-01-25T21:00:14.303Z,3.07
2023-01-25T21:02:43.276Z,3.09
2023-01-25T21:05:12.766Z,3.12
2023-01-25T21:07:42.244Z,3.05
2023-01-25T21:10:14.054Z,3.09
2023-01-25T21:12:44.106Z,3.10
2023-01-25T21:15:17.539Z,3.08
2023-01-25T21:17:46.224Z,3.17
2023-01-25T21:20:14.874Z,3.11
2023-01-25T21:22:43.531Z,3.11
2023-01-25T21:25:12.758Z,3.06
2023-01-25T21:27:43.184Z,3.17
2023-01-25T21:30:15.700Z,3.11
2023-01-25T21:32:44.327Z,3.12
2023-01-25T21:35:12.969Z,3.17
2023-01-25T21:37:41.817Z,3.18
2023-01-25T21:40:12.092Z,3.22
2023-01-25T21:42:40.783Z,3.20
2023-01-25T21:45:29.816Z,3.19
2023-01-25T21:48:01.851Z,3.11
2023-01-25T21:50:48.079Z,3.24
2023-01-25T21:53:16.751Z,3.28
2023-01-25T21:55:46.020Z,3.21
2023-01-25T21:58:14.617Z,3.22
2023-01-25T22:00:44.575Z,3.20
2023-01-25T22:03:13.155Z,3.23
2023-01-25T22:05:41.805Z,3.17
2023-01-25T22:08:10.414Z,3.26
2023-01-25T22:10:39.002Z,3.28
2023-01-25T22:13:07.548Z,3.18
2023-01-25T22:15:36.130Z,3.16
2023-01-25T22:18:06.601Z,3.22
2023-01-25T22:20:35.195Z,3.30
2023-01-25T22:23:03.915Z,3.27
2023-01-25T22:25:32.499Z,3.26
2023-01-25T22:28:01.769Z,3.20
2023-01-25T22:30:31.213Z,3.28
2023-01-25T22:32:59.841Z,3.37
2023-01-25T22:35:29.791Z,3.39
2023-01-25T22:37:58.354Z,3.39
2023-01-25T22:40:27.050Z,3.39
2023-01-25T22:42:55.618Z,3.32
2023-01-25T22:45:24.199Z,3.32
2023-01-25T22:47:52.752Z,3.39
2023-01-25T22:50:21.380Z,3.35
2023-01-25T22:52:51.341Z,3.46
2023-01-25T22:55:19.991Z,3.42
2023-01-25T22:57:48.620Z,3.32
2023-01-25T23:00:18.681Z,3.51
2023-01-25T23:02:47.285Z,3.42
2023-01-25T23:05:16.087Z,3.46
2023-01-25T23:07:44.792Z,3.37
2023-01-25T23:10:16.418Z,3.44
2023-01-25T23:12:45.089Z,3.55
2023-01-25T23:15:15.657Z,3.46
2023-01-25T23:18:02.675Z,3.42
2023-01-25T23:20:32.319Z,3.39
2023-01-25T23:23:01.055Z,3.53
2023-01-25T23:25:32.021Z,3.54
2023-01-25T23:28:00.620Z,3.46
2023-01-25T23:30:29.167Z,3.47
2023-01-25T23:32:57.800Z,3.52
2023-01-25T23:35:27.447Z,3.44
2023-01-25T23:37:56.100Z,3.50
2023-01-25T23:40:24.731Z,3.45
2023-01-25T23:42:54.751Z,3.54
2023-01-25T23:45:23.364Z,3.60
2023-01-25T23:47:51.947Z,3.51
2023-01-25T23:50:20.701Z,3.49
2023-01-25T23:52:49.300Z,3.44
2023-01-25T23:55:18.086Z,3.52
2023-01-25T23:57:46.685Z,3.53
